createdAt,value
2018-05-17T00:02:13.602Z,96710.95
2018-05-17T00:05:37.690Z,96704.05
2018-05-17T00:09:01.729Z,96703.70
2018-05-17T00:12:25.024Z,96705.02
2018-05-17T00:15:49.296Z,96707.03
2018-05-17T00:19:14.348Z,96710.38
2018-05-17T00:22:38.431Z,96710.05
2018-05-17T00:26:01.738Z,96708.81
2018-05-17T00:29:25.099Z,96712.66
2018-05-17T00:32:48.361Z,96703.36
2018-05-17T00:36:11.641Z,96699.31
2018-05-17T00:39:34.936Z,96699.23
2018-05-17T00:42:58.301Z,96694.51
2018-05-17T00:46:21.575Z,96691.48
2018-05-17T00:49:44.951Z,96702.31
2018-05-17T00:53:26.129Z,96699.13
2018-05-17T00:56:50.980Z,96696.98
2018-05-17T01:00:14.415Z,96702.03
2018-05-17T01:03:37.691Z,96699.74
2018-05-17T01:07:00.991Z,96701.25
2018-05-17T01:10:24.365Z,96695.44
2018-05-17T01:13:47.767Z,96694.78
2018-05-17T01:17:11.055Z,96688.38
2018-05-17T01:20:34.331Z,96690.58
2018-05-17T01:23:58.387Z,96699.48
2018-05-17T01:27:22.445Z,96700.87
2018-05-17T01:30:45.787Z,96707.63
2018-05-17T01:34:09.090Z,96707.91
2018-05-17T01:37:51.213Z,96708.85
2018-05-17T01:41:14.546Z,96717.34
2018-05-17T01:44:37.847Z,96709.88
2018-05-17T01:48:01.176Z,96708.09
2018-05-17T01:51:24.450Z,96708.31
2018-05-17T01:54:48.567Z,96705.56
2018-05-17T01:58:11.921Z,96712.36
2018-05-17T02:01:35.268Z,96706.09
2018-05-17T02:05:01.186Z,96708.25
2018-05-17T02:08:24.546Z,96710.61
2018-05-17T02:11:47.991Z,96713.19
2018-05-17T02:15:12.385Z,96723.92
2018-05-17T02:18:36.489Z,96724.95
2018-05-17T02:21:59.769Z,96721.93
2018-05-17T02:25:23.043Z,96726.27
2018-05-17T02:28:46.316Z,96730.83
2018-05-17T02:32:10.417Z,96726.47
2018-05-17T02:35:33.718Z,96724.67
2018-05-17T02:38:57.067Z,96734.38
2018-05-17T02:42:20.393Z,96728.30
2018-05-17T02:45:44.433Z,96722.76
2018-05-17T02:49:08.473Z,96718.48
2018-05-17T02:52:31.751Z,96721.48
2018-05-17T02:55:55.101Z,96719.67
2018-05-17T02:59:18.439Z,96716.87
2018-05-17T03:02:42.490Z,96713.59
2018-05-17T03:06:05.774Z,96709.27
2018-05-17T03:09:29.809Z,96702.36
2018-05-17T03:12:53.122Z,96705.59
2018-05-17T03:16:16.397Z,96712.75
2018-05-17T03:19:39.700Z,96712.14
2018-05-17T03:23:03.102Z,96713.11
2018-05-17T03:26:26.381Z,96712.39
2018-05-17T03:29:50.425Z,96713.94
2018-05-17T03:33:13.802Z,96712.66
2018-05-17T03:36:38.575Z,96721.06
2018-05-17T03:40:01.857Z,96714.81
2018-05-17T03:43:25.129Z,96714.42
2018-05-17T03:46:48.466Z,96719.71
2018-05-17T03:50:12.600Z,96717.22
2018-05-17T03:53:35.893Z,96716.28
2018-05-17T03:57:00.663Z,96718.28
2018-05-17T04:00:24.035Z,96714.33
2018-05-17T04:04:05.190Z,96716.20
2018-05-17T04:07:28.559Z,96715.11
2018-05-17T04:10:51.852Z,96717.03
2018-05-17T04:14:15.200Z,96721.98
2018-05-17T04:17:38.633Z,96728.80
2018-05-17T04:21:01.931Z,96729.21
2018-05-17T04:24:25.310Z,96732.96
2018-05-17T04:27:48.569Z,96734.47
2018-05-17T04:31:11.941Z,96737.11
2018-05-17T04:34:35.304Z,96743.93
2018-05-17T04:37:59.481Z,96748.98
2018-05-17T04:41:23.593Z,96747.31
2018-05-17T04:44:46.951Z,96739.80
2018-05-17T04:48:10.285Z,96744.95
2018-05-17T04:51:33.679Z,96749.16
2018-05-17T04:54:57.121Z,96738.55
2018-05-17T04:58:21.266Z,96739.80
2018-05-17T05:01:44.637Z,96735.75
2018-05-17T05:05:08.702Z,96739.53
2018-05-17T05:08:32.050Z,96741.94
2018-05-17T05:11:55.425Z,96741.96
2018-05-17T05:15:18.752Z,96748.97
2018-05-17T05:18:42.138Z,96749.35
2018-05-17T05:22:06.195Z,96750.41
2018-05-17T05:25:29.545Z,96742.89
2018-05-17T05:28:52.847Z,96749.13
2018-05-17T05:32:16.197Z,96747.57
2018-05-17T05:35:39.559Z,96750.12
2018-05-17T05:39:02.992Z,96752.54
2018-05-17T05:42:26.346Z,96754.57
2018-05-17T05:45:49.714Z,96756.59
2018-05-17T05:49:13.133Z,96756.08
2018-05-17T05:52:36.404Z,96750.53
2018-05-17T05:56:00.581Z,96752.72
2018-05-17T05:59:24.672Z,96751.37
2018-05-17T06:02:47.941Z,96752.52
2018-05-17T06:06:11.214Z,96758.45
2018-05-17T06:09:34.492Z,96763.80
2018-05-17T06:12:57.793Z,96767.45
2018-05-17T06:16:21.071Z,96766.95
2018-05-17T06:19:44.407Z,96769.69
2018-05-17T06:23:08.462Z,96776.31
2018-05-17T06:26:31.737Z,96785.28
2018-05-17T06:29:55.028Z,96775.36
2018-05-17T06:33:18.306Z,96773.97
2018-05-17T06:36:41.598Z,96780.54
2018-05-17T06:40:04.880Z,96772.66
2018-05-17T06:43:28.926Z,96772.07
2018-05-17T06:46:52.223Z,96770.73
2018-05-17T06:50:15.523Z,96768.43
2018-05-17T06:53:38.802Z,96767.27
2018-05-17T06:57:02.068Z,96767.64
2018-05-17T07:00:25.364Z,96770.17
2018-05-17T07:03:48.642Z,96773.06
2018-05-17T07:07:11.909Z,96773.15
2018-05-17T07:10:35.333Z,96772.33
2018-05-17T07:13:59.355Z,96780.30
2018-05-17T07:17:23.401Z,96777.69
2018-05-17T07:20:46.743Z,96780.25
2018-05-17T07:24:10.106Z,96793.16
2018-05-17T07:27:34.109Z,96802.16
2018-05-17T07:30:57.391Z,96802.06
2018-05-17T07:34:20.679Z,96803.02
2018-05-17T07:37:43.984Z,96809.40
2018-05-17T07:41:07.248Z,96815.27
2018-05-17T07:44:30.552Z,96814.22
2018-05-17T07:47:53.818Z,96812.89
2018-05-17T07:51:17.191Z,96813.82
2018-05-17T07:54:40.560Z,96811.84
2018-05-17T07:58:03.847Z,96818.89
2018-05-17T08:01:27.901Z,96825.27
2018-05-17T08:04:51.328Z,96825.79
2018-05-17T08:08:15.372Z,96827.98
2018-05-17T08:11:40.164Z,96826.86
2018-05-17T08:15:03.483Z,96824.91
2018-05-17T08:18:27.537Z,96825.80
2018-05-17T08:21:50.811Z,96828.91
2018-05-17T08:25:14.072Z,96834.34
2018-05-17T08:28:38.119Z,96839.64
2018-05-17T08:32:01.420Z,96839.05
2018-05-17T08:35:25.499Z,96834.69
2018-05-17T08:38:48.796Z,96837.05
2018-05-17T08:42:12.846Z,96834.96
2018-05-17T08:45:36.243Z,96839.79
2018-05-17T08:49:00.216Z,96842.75
2018-05-17T08:52:23.511Z,96840.50
2018-05-17T08:55:46.790Z,96847.94
2018-05-17T08:59:10.083Z,96845.95
2018-05-17T09:02:33.384Z,96849.34
2018-05-17T09:05:57.474Z,96854.13
2018-05-17T09:09:21.584Z,96862.96
2018-05-17T09:12:45.010Z,96866.05
2018-05-17T09:16:08.304Z,96868.53
2018-05-17T09:19:31.613Z,96864.64
2018-05-17T09:22:55.631Z,96874.49
2018-05-17T09:26:19.680Z,96872.07
2018-05-17T09:29:42.972Z,96871.85
2018-05-17T09:33:06.332Z,96871.80
2018-05-17T09:36:29.704Z,96868.30
2018-05-17T09:39:52.988Z,96872.44
2018-05-17T09:43:16.328Z,96868.76
2018-05-17T09:46:39.622Z,96875.47
2018-05-17T09:50:02.931Z,96867.91
2018-05-17T09:53:26.977Z,96875.61
2018-05-17T09:56:50.271Z,96882.05
2018-05-17T10:00:19.148Z,96876.63
2018-05-17T10:03:42.429Z,96874.31
2018-05-17T10:07:05.710Z,96876.50
2018-05-17T10:10:28.993Z,96879.52
2018-05-17T10:13:52.267Z,96882.98
2018-05-17T10:17:15.691Z,96877.76
2018-05-17T10:20:39.218Z,96888.31
2018-05-17T10:24:02.520Z,96887.21
2018-05-17T10:27:26.675Z,96877.94
2018-05-17T10:30:50.755Z,96884.09
2018-05-17T10:34:14.193Z,96874.10
2018-05-17T10:37:38.250Z,96879.34
2018-05-17T10:41:01.573Z,96881.60
2018-05-17T10:44:25.617Z,96878.66
2018-05-17T10:47:48.901Z,96885.70
2018-05-17T10:51:12.215Z,96883.67
2018-05-17T10:54:36.305Z,96884.98
2018-05-17T10:58:01.060Z,96893.33
2018-05-17T11:01:24.385Z,96888.52
2018-05-17T11:04:47.693Z,96890.79
2018-05-17T11:08:11.752Z,96897.66
2018-05-17T11:11:35.047Z,96894.34
2018-05-17T11:14:59.111Z,96886.38
2018-05-17T11:18:22.383Z,96889.95
2018-05-17T11:21:45.661Z,96889.23
2018-05-17T11:25:08.935Z,96895.34
2018-05-17T11:28:32.996Z,96889.44
2018-05-17T11:31:57.053Z,96892.06
2018-05-17T11:35:20.349Z,96893.98
2018-05-17T11:38:43.631Z,96894.11
2018-05-17T11:42:06.929Z,96898.41
2018-05-17T11:45:30.976Z,96892.43
2018-05-17T11:48:54.265Z,96888.70
2018-05-17T11:52:17.593Z,96890.08
2018-05-17T11:55:41.659Z,96886.22
2018-05-17T11:59:06.453Z,96884.29
2018-05-17T12:02:29.745Z,96884.80
2018-05-17T12:05:53.116Z,96889.27
2018-05-17T12:09:17.184Z,96888.62
2018-05-17T12:12:40.477Z,96888.27
2018-05-17T15:07:27.398Z,96864.19
2018-05-17T15:10:50.777Z,96867.98
2018-05-17T15:14:15.270Z,96855.79
2018-05-17T15:17:38.750Z,96854.78
2018-05-17T15:21:02.331Z,96869.70
2018-05-17T15:24:27.092Z,96867.99
2018-05-17T15:27:50.737Z,96869.48
2018-05-17T15:31:14.172Z,96874.93
2018-05-17T15:34:37.944Z,96873.29
2018-05-17T15:38:01.243Z,96876.14
2018-05-17T15:41:24.646Z,96869.74
2018-05-17T15:44:47.984Z,96875.69
2018-05-17T15:48:12.188Z,96880.58
2018-05-17T15:51:35.714Z,96885.23
2018-05-17T15:55:00.561Z,96876.40
2018-05-17T15:58:23.895Z,96879.39
2018-05-17T16:01:48.015Z,96882.70
2018-05-17T16:05:11.674Z,96879.20
2018-05-17T16:08:35.281Z,96876.36
2018-05-17T16:11:59.311Z,96873.10
2018-05-17T16:15:22.718Z,96877.45
2018-05-17T16:18:45.947Z,96870.07
2018-05-17T16:22:09.455Z,96874.19
2018-05-17T16:25:32.814Z,96876.72
2018-05-17T16:28:56.090Z,96880.41
2018-05-17T16:32:19.642Z,96881.63
2018-05-17T16:35:43.696Z,96891.42
2018-05-17T16:39:07.166Z,96883.78
2018-05-17T16:42:31.290Z,96888.17
2018-05-17T16:45:54.628Z,96894.45
2018-05-17T16:49:17.930Z,96898.73
2018-05-17T16:52:45.453Z,96894.89
2018-05-17T16:56:08.772Z,96893.80
2018-05-17T16:59:32.142Z,96896.00
2018-05-17T17:02:56.158Z,96895.05
2018-05-17T17:06:19.511Z,96899.36
2018-05-17T17:09:42.901Z,96899.63
2018-05-17T17:13:07.665Z,96901.49
2018-05-17T17:16:30.953Z,96904.30
2018-05-17T17:19:54.352Z,96901.38
2018-05-17T17:23:17.724Z,96901.34
2018-05-17T17:26:41.003Z,96905.10
2018-05-17T17:30:04.375Z,96903.57
2018-05-17T17:33:27.680Z,96909.46
2018-05-17T17:36:51.126Z,96903.42
2018-05-17T17:40:15.257Z,96904.98
2018-05-17T17:43:38.670Z,96902.17
2018-05-17T17:47:01.966Z,96903.34
2018-05-17T17:50:25.338Z,96906.40
2018-05-17T17:53:48.664Z,96909.17
2018-05-17T17:57:11.977Z,96907.41
2018-05-17T18:00:35.353Z,96910.16
2018-05-17T18:03:59.489Z,96911.78
2018-05-17T18:07:22.854Z,96913.13
2018-05-17T18:10:46.227Z,96915.95
2018-05-17T18:14:10.353Z,96902.66
2018-05-17T18:17:33.720Z,96918.90
2018-05-17T18:20:57.047Z,96918.84
2018-05-17T18:24:20.487Z,96919.59
2018-05-17T18:27:43.766Z,96923.11
2018-05-17T18:31:07.093Z,96923.15
2018-05-17T18:34:31.223Z,96930.42
2018-05-17T18:37:54.575Z,96934.18
2018-05-17T18:41:17.976Z,96935.11
2018-05-17T18:44:42.091Z,96933.31
2018-05-17T18:48:05.430Z,96935.57
2018-05-17T18:51:28.799Z,96945.20
2018-05-17T18:54:52.083Z,96941.65
2018-05-17T18:58:15.360Z,96946.91
2018-05-17T19:01:38.667Z,96949.58
2018-05-17T19:05:02.029Z,96947.77
2018-05-17T19:08:26.164Z,96950.19
2018-05-17T19:11:49.527Z,96949.38
2018-05-17T19:15:12.874Z,96956.02
2018-05-17T19:18:37.008Z,96961.34
2018-05-17T19:22:00.339Z,96965.66
2018-05-17T19:25:24.401Z,96961.81
2018-05-17T19:28:47.734Z,96967.07
2018-05-17T19:32:11.078Z,96969.14
2018-05-17T19:35:35.183Z,96979.90
2018-05-17T19:38:58.492Z,96983.48
2018-05-17T19:42:21.989Z,96989.25
2018-05-17T19:45:45.422Z,96991.96
2018-05-17T19:49:08.797Z,96991.90
2018-05-17T19:52:32.147Z,96993.94
2018-05-17T19:55:55.502Z,97000.11
2018-05-17T19:59:18.930Z,96995.27
2018-05-17T20:02:42.185Z,97002.85
2018-05-17T20:06:05.487Z,97004.31
2018-05-17T20:09:28.771Z,97007.21
2018-05-17T20:12:52.113Z,97006.05
2018-05-17T20:16:15.422Z,96999.50
2018-05-17T20:19:38.783Z,97006.79
2018-05-17T20:23:02.159Z,97011.96
2018-05-17T20:26:26.325Z,97010.47
2018-05-17T20:29:50.437Z,97011.31
2018-05-17T20:33:13.727Z,97012.13
2018-05-17T20:36:37.105Z,97000.27
2018-05-17T20:40:00.460Z,97012.39
2018-05-17T20:43:23.807Z,97013.77
2018-05-17T20:46:47.289Z,97024.55
2018-05-17T20:50:10.655Z,97021.39
2018-05-17T20:53:34.032Z,97021.19
2018-05-17T20:56:57.444Z,97017.63
2018-05-17T21:00:20.786Z,97016.60
2018-05-17T21:03:44.140Z,97010.16
2018-05-17T21:07:07.508Z,97002.68
2018-05-17T21:10:30.870Z,97008.23
2018-05-17T21:13:54.234Z,97014.29
2018-05-17T21:17:17.581Z,97013.08
2018-05-17T21:20:41.082Z,97010.86
2018-05-17T21:28:35.779Z,96995.52
2018-05-17T21:31:59.151Z,96988.39
2018-05-17T21:35:22.642Z,96987.83
2018-05-17T21:38:45.994Z,96992.05
2018-05-17T21:42:09.430Z,96989.00
2018-05-17T21:45:32.886Z,96995.97
2018-05-17T21:48:57.039Z,96997.09
2018-05-17T21:52:21.095Z,96993.19
2018-05-17T21:55:44.462Z,96990.18
2018-05-17T21:59:07.785Z,96985.55
2018-05-17T22:02:31.102Z,96986.79
2018-05-17T22:05:54.471Z,96980.41
2018-05-17T22:09:17.796Z,96975.66
2018-05-17T22:12:41.144Z,96982.64
2018-05-17T22:16:04.455Z,96979.12
2018-05-17T22:19:27.815Z,96973.42
2018-05-17T22:22:51.200Z,96978.16
2018-05-17T22:26:14.511Z,96978.83
2018-05-17T22:29:37.941Z,96980.41
2018-05-17T22:33:01.302Z,96984.24
2018-05-17T22:36:24.695Z,96987.27
2018-05-17T22:39:48.733Z,96983.31
2018-05-17T22:43:12.040Z,96979.49
2018-05-17T22:46:35.404Z,96982.86
2018-05-17T22:49:58.883Z,96980.14
2018-05-17T22:53:22.168Z,96981.35
2018-05-17T22:57:03.329Z,96976.02
2018-05-17T23:00:26.615Z,96978.91
2018-05-17T23:03:50.707Z,96983.14
2018-05-17T23:07:13.989Z,96974.95
2018-05-17T23:10:37.294Z,96976.15
2018-05-17T23:14:00.599Z,96972.73
2018-05-17T23:17:24.667Z,96969.42
2018-05-17T23:20:48.974Z,96971.05
2018-05-17T23:24:12.331Z,96977.78
2018-05-17T23:27:36.403Z,96974.82
2018-05-17T23:30:59.737Z,96979.56
2018-05-17T23:34:23.836Z,96973.88
2018-05-17T23:37:47.249Z,96974.66
2018-05-17T23:41:28.380Z,96975.17
2018-05-17T23:44:52.442Z,96971.56
2018-05-17T23:48:15.791Z,96965.13
2018-05-17T23:51:39.077Z,96969.06
2018-05-17T23:55:02.444Z,96975.39
2018-05-17T23:58:25.718Z,96966.11
